createdAt,value
2022-08-20T00:02:15.537Z,23.51
2022-08-20T00:04:44.521Z,23.56
2022-08-20T00:07:14.489Z,23.29
2022-08-20T00:09:44.273Z,22.84
2022-08-20T00:12:13.970Z,22.99
2022-08-20T00:14:42.365Z,23.11
2022-08-20T00:19:38.969Z,22.81
2022-08-20T00:22:07.323Z,22.88
2022-08-20T00:24:35.991Z,22.96
2022-08-20T00:27:04.390Z,22.83
2022-08-20T00:29:32.751Z,22.93
2022-08-20T00:32:01.341Z,23.17
2022-08-20T00:34:29.801Z,23.21
2022-08-20T00:36:58.151Z,23.35
2022-08-20T00:39:27.311Z,23.33
2022-08-20T00:41:55.650Z,23.37
2022-08-20T00:44:24.026Z,23.04
2022-08-20T00:46:53.608Z,23.01
2022-08-20T00:49:28.308Z,22.92
2022-08-20T00:52:02.540Z,22.76
2022-08-20T00:54:40.549Z,22.87
2022-08-20T00:57:12.632Z,22.82
2022-08-20T00:59:42.510Z,23.01
2022-08-20T01:02:16.264Z,22.88
2022-08-20T01:04:54.360Z,22.76
2022-08-20T01:07:32.772Z,22.55
2022-08-20T01:10:02.361Z,22.56
2022-08-20T01:12:31.492Z,22.36
2022-08-20T01:15:02.053Z,22.38
2022-08-20T01:17:33.390Z,22.53
2022-08-20T01:20:07.364Z,22.73
2022-08-20T01:23:30.590Z,22.55
2022-08-20T01:26:19.033Z,22.45
2022-08-20T01:29:02.890Z,22.44
2022-08-20T01:31:38.249Z,22.66
2022-08-20T01:34:10.470Z,22.82
2022-08-20T01:36:58.410Z,22.93
2022-08-20T01:39:31.364Z,23.02
2022-08-20T01:42:14.731Z,22.64
2022-08-20T01:44:45.010Z,22.77
2022-08-20T01:47:24.890Z,22.44
2022-08-20T01:49:58.839Z,22.45
2022-08-20T01:52:54.951Z,22.56
2022-08-20T01:55:24.639Z,22.44
2022-08-20T01:57:53.150Z,22.65
2022-08-20T02:00:22.700Z,22.64
2022-08-20T02:02:51.166Z,22.52
2022-08-20T02:05:20.677Z,22.72
2022-08-20T02:07:49.184Z,22.66
2022-08-20T02:10:18.839Z,22.64
2022-08-20T02:12:47.408Z,22.69
2022-08-20T02:15:16.326Z,22.63
2022-08-20T02:17:45.377Z,22.86
2022-08-20T02:20:21.387Z,22.76
2022-08-20T02:22:59.977Z,22.78
2022-08-20T02:25:31.893Z,22.81
2022-08-20T02:28:04.227Z,22.63
2022-08-20T02:30:38.418Z,22.29
2022-08-20T02:33:10.729Z,22.44
2022-08-20T02:35:43.171Z,22.40
2022-08-20T02:38:12.010Z,22.27
2022-08-20T02:40:41.040Z,22.44
2022-08-20T02:43:09.487Z,22.46
2022-08-20T02:45:44.188Z,22.32
2022-08-20T02:48:21.080Z,22.37
2022-08-20T02:50:57.050Z,22.35
2022-08-20T02:53:26.669Z,22.50
2022-08-20T02:55:55.518Z,22.47
2022-08-20T02:58:24.937Z,22.18
2022-08-20T03:00:54.366Z,22.06
2022-08-20T03:03:24.471Z,22.06
2022-08-20T03:05:56.148Z,22.12
2022-08-20T03:08:26.506Z,22.13
2022-08-20T03:10:55.329Z,22.09
2022-08-20T03:13:24.625Z,22.19
2022-08-20T03:15:59.214Z,22.21
2022-08-20T03:18:32.020Z,22.29
2022-08-20T03:21:01.014Z,22.04
2022-08-20T03:23:30.162Z,22.12
2022-08-20T03:25:59.794Z,22.30
2022-08-20T03:28:28.354Z,22.22
2022-08-20T03:30:57.397Z,22.26
2022-08-20T03:33:27.593Z,22.17
2022-08-20T03:35:56.647Z,22.09
2022-08-20T03:38:33.182Z,22.11
2022-08-20T03:41:03.187Z,21.80
2022-08-20T03:43:32.923Z,21.76
2022-08-20T03:46:01.724Z,21.86
2022-08-20T03:48:30.453Z,21.91
2022-08-20T03:51:01.252Z,21.66
2022-08-20T03:53:33.154Z,21.65
2022-08-20T03:56:05.072Z,21.92
2022-08-20T03:58:35.922Z,21.84
2022-08-20T04:01:32.064Z,21.95
2022-08-20T04:03:59.138Z,21.91
2022-08-20T04:06:29.474Z,21.87
2022-08-20T04:08:58.962Z,22.10
2022-08-20T04:11:27.393Z,22.07
2022-08-20T04:13:56.004Z,21.71
2022-08-20T04:16:24.444Z,22.05
2022-08-20T04:19:01.384Z,22.20
2022-08-20T04:21:33.387Z,22.10
2022-08-20T04:24:06.414Z,22.11
2022-08-20T04:26:36.857Z,21.92
2022-08-20T04:29:05.793Z,22.10
2022-08-20T04:31:34.533Z,22.12
2022-08-20T04:34:08.108Z,22.04
2022-08-20T04:36:36.653Z,21.99
2022-08-20T04:39:06.143Z,21.98
2022-08-20T04:41:34.465Z,21.90
2022-08-20T04:44:03.123Z,21.73
2022-08-20T04:46:33.043Z,21.76
2022-08-20T04:49:03.574Z,21.98
2022-08-20T04:51:32.714Z,22.15
2022-08-20T04:54:03.434Z,22.30
2022-08-20T04:56:39.344Z,22.38
2022-08-20T04:59:08.451Z,22.04
2022-08-20T05:01:36.881Z,22.15
2022-08-20T05:04:05.310Z,21.89
2022-08-20T05:06:34.002Z,22.17
2022-08-20T05:09:02.379Z,22.21
2022-08-20T05:11:34.807Z,22.02
2022-08-20T05:14:09.619Z,22.10
2022-08-20T05:16:39.779Z,22.10
2022-08-20T05:19:11.131Z,22.14
2022-08-20T05:21:40.143Z,22.14
2022-08-20T05:24:10.507Z,22.30
2022-08-20T05:26:39.390Z,22.31
2022-08-20T05:29:07.822Z,22.15
2022-08-20T05:31:38.748Z,22.32
2022-08-20T05:34:11.388Z,22.54
2022-08-20T05:36:48.164Z,22.59
2022-08-20T05:39:20.598Z,22.50
2022-08-20T05:41:51.527Z,22.47
2022-08-20T05:44:20.311Z,22.40
2022-08-20T05:46:48.918Z,22.57
2022-08-20T05:49:20.386Z,22.78
2022-08-20T05:51:51.492Z,22.83
2022-08-20T05:54:20.101Z,22.80
2022-08-20T05:56:48.448Z,22.68
2022-08-20T05:59:21.064Z,22.54
2022-08-20T06:01:53.498Z,22.62
2022-08-20T06:04:25.084Z,22.81
2022-08-20T06:07:04.788Z,22.86
2022-08-20T06:09:33.778Z,22.84
2022-08-20T06:12:06.395Z,22.89
2022-08-20T06:14:35.558Z,23.02
2022-08-20T06:17:10.257Z,23.10
2022-08-20T06:19:44.540Z,23.24
2022-08-20T06:22:18.774Z,23.19
2022-08-20T06:24:54.507Z,23.30
2022-08-20T06:27:23.797Z,23.30
2022-08-20T06:29:52.287Z,23.18
2022-08-20T06:32:28.782Z,23.23
2022-08-20T06:35:07.348Z,23.37
2022-08-20T06:37:38.157Z,23.40
2022-08-20T06:40:13.375Z,23.42
2022-08-20T06:42:48.082Z,23.48
2022-08-20T06:45:21.192Z,23.50
2022-08-20T06:47:49.781Z,23.52
2022-08-20T06:50:22.352Z,23.22
2022-08-20T06:52:52.974Z,23.47
2022-08-20T06:55:22.718Z,23.55
2022-08-20T06:58:02.429Z,23.67
2022-08-20T07:00:33.303Z,23.78
2022-08-20T07:03:03.386Z,23.84
2022-08-20T07:05:34.908Z,23.73
2022-08-20T07:08:04.705Z,23.76
2022-08-20T07:10:33.119Z,23.88
2022-08-20T07:13:01.527Z,24.01
2022-08-20T07:15:31.227Z,23.90
2022-08-20T07:18:02.119Z,23.92
2022-08-20T07:20:34.296Z,23.99
2022-08-20T07:23:03.177Z,23.95
2022-08-20T07:25:34.088Z,23.95
2022-08-20T07:28:05.031Z,23.92
2022-08-20T07:30:55.858Z,23.85
2022-08-20T07:33:30.106Z,24.00
2022-08-20T07:36:00.437Z,24.11
2022-08-20T07:38:30.917Z,24.12
2022-08-20T07:41:03.539Z,24.17
2022-08-20T07:43:32.878Z,24.25
2022-08-20T07:46:03.359Z,24.38
2022-08-20T07:48:32.661Z,24.40
2022-08-20T07:51:04.528Z,24.29
2022-08-20T07:53:35.925Z,24.33
2022-08-20T07:56:11.732Z,24.37
2022-08-20T07:58:52.657Z,24.46
2022-08-20T08:01:26.382Z,24.56
2022-08-20T08:03:54.988Z,24.65
2022-08-20T08:06:30.514Z,24.70
2022-08-20T08:09:05.346Z,24.81
2022-08-20T08:11:37.635Z,24.89
2022-08-20T08:14:09.050Z,24.90
2022-08-20T08:16:38.018Z,24.87
2022-08-20T08:19:09.618Z,24.91
2022-08-20T08:21:39.399Z,24.87
2022-08-20T08:24:07.817Z,24.89
2022-08-20T08:26:36.119Z,24.93
2022-08-20T08:29:07.738Z,24.90
2022-08-20T08:31:36.136Z,24.94
2022-08-20T08:34:04.717Z,24.95
2022-08-20T08:36:33.217Z,24.96
2022-08-20T08:39:01.567Z,25.00
2022-08-20T08:41:36.048Z,25.02
2022-08-20T08:44:09.667Z,25.22
2022-08-20T08:46:44.188Z,25.20
2022-08-20T08:49:23.378Z,25.36
2022-08-20T08:52:14.886Z,25.42
2022-08-20T08:54:49.157Z,25.48
2022-08-20T08:57:18.117Z,25.56
2022-08-20T09:00:02.487Z,25.51
2022-08-20T09:02:36.646Z,25.53
2022-08-20T09:05:15.537Z,25.66
2022-08-20T09:07:47.548Z,25.72
2022-08-20T09:10:17.134Z,25.80
2022-08-20T09:12:52.827Z,25.71
2022-08-20T09:15:22.159Z,25.57
2022-08-20T09:17:50.388Z,25.54
2022-08-20T09:20:19.726Z,25.74
2022-08-20T09:22:52.160Z,25.91
2022-08-20T09:25:21.108Z,26.05
2022-08-20T09:27:49.508Z,26.06
2022-08-20T09:30:19.897Z,25.93
2022-08-20T09:32:49.028Z,26.00
2022-08-20T09:35:17.379Z,26.00
2022-08-20T09:37:52.909Z,26.10
2022-08-20T09:40:22.649Z,26.13
2022-08-20T09:42:51.960Z,26.22
2022-08-20T09:45:20.828Z,26.05
2022-08-20T09:47:56.608Z,26.13
2022-08-20T09:50:31.010Z,26.20
2022-08-20T09:53:01.177Z,26.24
2022-08-20T09:55:32.769Z,26.15
2022-08-20T09:58:16.668Z,26.21
2022-08-20T10:00:45.397Z,26.29
2022-08-20T10:03:13.899Z,26.33
2022-08-20T10:05:42.286Z,26.39
2022-08-20T10:08:12.158Z,26.34
2022-08-20T10:10:40.836Z,26.34
2022-08-20T10:13:09.137Z,26.41
2022-08-20T10:15:42.307Z,26.72
2022-08-20T10:18:12.335Z,26.90
2022-08-20T10:20:41.585Z,27.11
2022-08-20T10:23:11.149Z,26.94
2022-08-20T10:25:39.526Z,26.76
2022-08-20T10:28:07.718Z,26.90
2022-08-20T10:30:36.696Z,26.91
2022-08-20T10:33:04.968Z,26.64
2022-08-20T10:35:33.355Z,26.63
2022-08-20T10:38:01.896Z,26.89
2022-08-20T10:40:30.209Z,26.66
2022-08-20T10:42:58.587Z,26.86
2022-08-20T10:45:27.154Z,27.26
2022-08-20T10:47:55.866Z,27.43
2022-08-20T10:50:24.697Z,27.56
2022-08-20T10:52:59.015Z,27.67
2022-08-20T10:55:27.348Z,27.72
2022-08-20T10:57:55.731Z,27.86
2022-08-20T11:00:25.218Z,27.92
2022-08-20T11:02:53.527Z,27.93
2022-08-20T11:05:22.007Z,27.80
2022-08-20T11:07:55.900Z,27.83
2022-08-20T11:10:27.443Z,27.93
2022-08-20T11:12:56.156Z,28.04
2022-08-20T11:15:25.247Z,28.02
2022-08-20T11:17:53.800Z,28.16
2022-08-20T11:20:25.386Z,28.13
2022-08-20T11:22:54.981Z,28.13
2022-08-20T11:25:23.760Z,27.89
2022-08-20T11:27:53.528Z,27.82
2022-08-20T11:30:27.872Z,28.03
2022-08-20T11:32:57.578Z,28.07
2022-08-20T11:35:48.899Z,28.07
2022-08-20T11:38:16.767Z,28.25
2022-08-20T11:40:47.206Z,28.33
2022-08-20T11:43:17.308Z,28.22
2022-08-20T11:45:49.452Z,28.21
2022-08-20T11:48:18.351Z,28.37
2022-08-20T11:50:47.356Z,28.26
2022-08-20T11:53:15.821Z,28.16
2022-08-20T11:55:44.617Z,28.13
2022-08-20T11:58:13.137Z,28.02
2022-08-20T12:00:41.642Z,28.37
2022-08-20T12:03:11.614Z,28.44
2022-08-20T12:05:43.481Z,28.35
2022-08-20T12:08:27.727Z,28.51
2022-08-20T12:11:00.176Z,28.47
2022-08-20T12:13:48.065Z,28.60
2022-08-20T12:16:19.522Z,28.65
2022-08-20T12:18:48.575Z,28.86
2022-08-20T12:21:17.460Z,28.74
2022-08-20T12:23:46.356Z,28.86
2022-08-20T12:26:16.941Z,28.87
2022-08-20T12:28:45.199Z,28.72
2022-08-20T12:31:13.869Z,28.60
2022-08-20T12:33:42.099Z,28.97
2022-08-20T12:36:11.307Z,28.96
2022-08-20T12:38:39.958Z,28.74
2022-08-20T12:41:08.827Z,28.92
2022-08-20T12:43:37.192Z,28.98
2022-08-20T12:46:05.847Z,28.98
2022-08-20T12:48:34.328Z,28.85
2022-08-20T12:51:02.549Z,28.97
2022-08-20T12:53:31.117Z,29.07
2022-08-20T12:55:59.957Z,28.98
2022-08-20T12:58:28.499Z,29.01
2022-08-20T13:00:57.036Z,29.01
2022-08-20T13:03:25.247Z,28.87
2022-08-20T13:05:55.038Z,29.02
2022-08-20T13:08:23.558Z,29.00
2022-08-20T13:10:51.809Z,29.21
2022-08-20T13:13:21.126Z,29.09
2022-08-20T13:15:51.579Z,29.05
2022-08-20T13:18:20.611Z,28.74
2022-08-20T13:20:49.308Z,28.94
2022-08-20T13:23:17.950Z,28.82
2022-08-20T13:25:46.369Z,29.30
2022-08-20T13:28:14.680Z,29.43
2022-08-20T13:30:43.229Z,29.66
2022-08-20T13:33:11.598Z,29.49
2022-08-20T13:35:39.995Z,29.21
2022-08-20T13:38:08.820Z,29.20
2022-08-20T13:40:37.109Z,29.24
2022-08-20T13:43:07.345Z,29.17
2022-08-20T13:45:37.576Z,28.84
2022-08-20T13:48:09.986Z,29.03
2022-08-20T13:50:46.838Z,29.59
2022-08-20T13:53:16.707Z,29.42
2022-08-20T13:55:46.882Z,29.73
2022-08-20T13:58:15.156Z,29.64
2022-08-20T14:00:44.917Z,29.48
2022-08-20T14:03:13.796Z,29.68
2022-08-20T14:05:47.908Z,29.85
2022-08-20T14:08:20.603Z,29.70
2022-08-20T14:10:51.328Z,29.71
2022-08-20T14:13:23.779Z,29.99
2022-08-20T14:15:52.616Z,29.92
2022-08-20T14:18:21.118Z,29.64
2022-08-20T14:20:49.998Z,29.87
2022-08-20T14:23:18.148Z,29.87
2022-08-20T14:25:48.489Z,29.90
2022-08-20T14:28:22.658Z,29.92
2022-08-20T14:30:53.100Z,29.92
2022-08-20T14:33:23.818Z,29.94
2022-08-20T14:35:53.005Z,30.02
2022-08-20T14:38:22.009Z,30.11
2022-08-20T14:40:50.819Z,30.12
2022-08-20T14:43:20.333Z,30.03
2022-08-20T14:45:48.588Z,29.96
2022-08-20T14:48:17.084Z,30.02
2022-08-20T14:50:46.041Z,30.07
2022-08-20T14:53:14.977Z,29.81
2022-08-20T14:55:43.356Z,29.88
2022-08-20T14:58:14.023Z,29.89
2022-08-20T15:00:43.317Z,29.94
2022-08-20T15:03:13.659Z,30.17
2022-08-20T15:05:42.590Z,30.13
2022-08-20T15:08:12.448Z,30.21
2022-08-20T15:10:42.407Z,30.15
2022-08-20T15:13:11.538Z,30.29
2022-08-20T15:15:40.898Z,30.30
2022-08-20T15:18:09.341Z,30.28
2022-08-20T15:20:38.065Z,30.25
2022-08-20T15:23:07.357Z,30.20
2022-08-20T15:25:37.675Z,30.23
2022-08-20T15:28:09.612Z,30.07
2022-08-20T15:30:40.940Z,29.89
2022-08-20T15:33:10.887Z,29.87
2022-08-20T15:35:39.337Z,30.08
2022-08-20T15:38:07.938Z,30.01
2022-08-20T15:40:36.717Z,30.02
2022-08-20T15:43:06.218Z,29.88
2022-08-20T15:45:35.779Z,29.81
2022-08-20T15:48:13.062Z,29.82
2022-08-20T15:51:12.089Z,29.73
2022-08-20T15:53:52.801Z,29.66
2022-08-20T15:56:23.859Z,29.68
2022-08-20T15:59:04.007Z,29.63
2022-08-20T16:01:59.698Z,29.55
2022-08-20T16:04:37.389Z,29.52
2022-08-20T16:07:14.335Z,29.52
2022-08-20T16:09:56.536Z,29.44
2022-08-20T16:12:33.567Z,29.33
2022-08-20T16:15:12.878Z,29.35
2022-08-20T16:17:47.180Z,29.36
2022-08-20T16:20:24.809Z,29.26
2022-08-20T16:23:01.217Z,29.21
2022-08-20T16:25:36.219Z,29.15
2022-08-20T16:28:16.754Z,29.17
2022-08-20T16:30:52.356Z,29.15
2022-08-20T16:33:34.267Z,29.14
2022-08-20T16:36:19.399Z,29.10
2022-08-20T16:38:59.407Z,29.14
2022-08-20T16:41:39.197Z,29.17
2022-08-20T16:44:32.526Z,29.18
2022-08-20T16:47:15.075Z,29.13
2022-08-20T16:50:12.207Z,29.10
2022-08-20T16:52:43.405Z,29.05
2022-08-20T16:55:12.828Z,29.12
2022-08-20T16:57:41.646Z,29.09
2022-08-20T17:00:15.777Z,29.01
2022-08-20T17:02:55.359Z,29.04
2022-08-20T17:05:26.861Z,29.03
2022-08-20T17:08:02.162Z,29.01
2022-08-20T17:10:33.885Z,28.97
2022-08-20T17:13:28.120Z,28.96
2022-08-20T17:16:00.296Z,29.01
2022-08-20T17:18:34.911Z,28.92
2022-08-20T17:21:23.726Z,28.95
2022-08-20T17:24:16.865Z,28.98
2022-08-20T17:26:51.560Z,28.95
2022-08-20T17:29:27.406Z,28.90
2022-08-20T17:32:17.204Z,28.78
2022-08-20T17:34:49.876Z,28.87
2022-08-20T17:37:27.945Z,28.81
2022-08-20T17:40:18.481Z,28.75
2022-08-20T17:43:09.806Z,28.81
2022-08-20T17:45:42.589Z,28.75
2022-08-20T17:48:17.646Z,28.68
2022-08-20T17:50:46.117Z,28.68
2022-08-20T17:53:23.168Z,28.61
2022-08-20T17:56:00.933Z,28.67
2022-08-20T17:58:40.307Z,28.63
2022-08-20T18:01:26.263Z,28.56
2022-08-20T18:03:55.154Z,28.56
2022-08-20T18:06:48.638Z,28.57
2022-08-20T18:09:20.755Z,28.60
2022-08-20T18:12:18.458Z,28.52
2022-08-20T18:15:29.978Z,28.52
2022-08-20T18:18:33.136Z,28.55
2022-08-20T18:21:13.196Z,28.41
2022-08-20T18:23:47.636Z,28.47
2022-08-20T18:26:32.481Z,28.44
2022-08-20T18:29:11.996Z,28.42
2022-08-20T18:31:53.956Z,28.51
2022-08-20T18:34:40.737Z,28.39
2022-08-20T18:37:12.110Z,28.38
2022-08-20T18:39:42.712Z,28.45
2022-08-20T18:42:31.616Z,28.46
2022-08-20T18:44:59.929Z,28.22
2022-08-20T18:47:34.131Z,28.37
2022-08-20T18:50:15.760Z,28.30
2022-08-20T18:52:53.271Z,28.17
2022-08-20T18:55:39.568Z,28.08
2022-08-20T18:58:14.267Z,28.02
2022-08-20T19:00:45.910Z,28.02
2022-08-20T19:03:25.424Z,27.98
2022-08-20T19:06:05.855Z,28.00
2022-08-20T19:08:54.645Z,28.19
2022-08-20T19:11:38.239Z,28.22
2022-08-20T19:14:46.345Z,28.11
2022-08-20T19:17:24.906Z,28.09
2022-08-20T19:20:06.928Z,28.03
2022-08-20T19:23:07.643Z,27.94
2022-08-20T19:25:39.829Z,27.98
2022-08-20T19:28:20.785Z,28.05
2022-08-20T19:30:50.757Z,28.11
2022-08-20T19:33:31.269Z,27.99
2022-08-20T19:36:17.547Z,27.87
2022-08-20T19:38:54.896Z,27.82
2022-08-20T19:41:33.475Z,27.82
2022-08-20T19:44:03.620Z,27.86
2022-08-20T19:46:48.785Z,27.87
2022-08-20T19:49:25.506Z,27.82
2022-08-20T19:52:14.226Z,27.68
2022-08-20T19:54:52.150Z,27.58
2022-08-20T19:57:22.086Z,27.55
2022-08-20T20:00:07.426Z,27.52
2022-08-20T20:02:36.477Z,27.45
2022-08-20T20:05:07.049Z,27.42
2022-08-20T20:07:45.927Z,27.35
2022-08-20T20:10:33.040Z,27.31
2022-08-20T20:13:14.275Z,27.35
2022-08-20T20:15:43.647Z,27.38
2022-08-20T20:18:13.496Z,27.38
2022-08-20T20:20:58.240Z,27.31
2022-08-20T20:23:45.597Z,27.43
2022-08-20T20:26:20.262Z,27.35
2022-08-20T20:28:54.951Z,27.31
2022-08-20T20:31:32.419Z,27.22
2022-08-20T20:34:07.228Z,27.20
2022-08-20T20:36:36.898Z,27.02
2022-08-20T20:39:13.742Z,26.90
2022-08-20T20:41:54.473Z,26.76
2022-08-20T20:44:39.040Z,26.94
2022-08-20T20:47:23.088Z,26.91
2022-08-20T20:49:56.997Z,26.98
2022-08-20T20:52:31.467Z,26.98
2022-08-20T20:55:11.906Z,27.08
2022-08-20T20:57:40.452Z,27.13
2022-08-20T21:00:13.543Z,27.03
2022-08-20T21:02:42.290Z,27.07
2022-08-20T21:05:12.557Z,27.07
2022-08-20T21:07:56.186Z,27.13
2022-08-20T21:10:27.737Z,27.07
2022-08-20T21:12:56.197Z,27.02
2022-08-20T21:15:26.910Z,27.07
2022-08-20T21:17:58.879Z,27.14
2022-08-20T21:20:28.468Z,27.09
2022-08-20T21:22:58.838Z,27.07
2022-08-20T21:25:29.507Z,27.13
2022-08-20T21:27:57.872Z,27.13
2022-08-20T21:30:26.331Z,27.09
2022-08-20T21:32:54.626Z,26.95
2022-08-20T21:35:23.596Z,26.84
2022-08-20T21:37:52.026Z,26.76
2022-08-20T21:40:21.700Z,26.70
2022-08-20T21:42:51.281Z,26.78
2022-08-20T21:45:19.878Z,26.69
2022-08-20T21:47:48.839Z,26.71
2022-08-20T21:50:19.570Z,26.56
2022-08-20T21:52:55.394Z,26.40
2022-08-20T21:55:34.084Z,26.26
2022-08-20T21:58:05.180Z,26.50
2022-08-20T22:00:51.995Z,26.49
2022-08-20T22:03:24.449Z,26.56
2022-08-20T22:05:53.378Z,26.50
2022-08-20T22:08:26.109Z,26.47
2022-08-20T22:10:58.796Z,26.53
2022-08-20T22:13:33.066Z,26.59
2022-08-20T22:16:03.736Z,26.71
2022-08-20T22:18:32.570Z,26.78
2022-08-20T22:21:01.050Z,26.73
2022-08-20T22:23:29.606Z,26.76
2022-08-20T22:25:58.453Z,26.78
2022-08-20T22:28:26.926Z,26.68
2022-08-20T22:30:55.313Z,26.52
2022-08-20T22:33:24.057Z,26.61
2022-08-20T22:35:55.783Z,26.46
2022-08-20T22:38:24.865Z,26.20
2022-08-20T22:40:54.244Z,26.39
2022-08-20T22:43:23.395Z,26.46
2022-08-20T22:45:57.088Z,26.47
2022-08-20T22:48:25.989Z,26.57
2022-08-20T22:50:55.296Z,26.68
2022-08-20T22:53:25.356Z,26.68
2022-08-20T22:55:54.375Z,26.61
2022-08-20T22:58:31.295Z,26.61
2022-08-20T23:01:02.475Z,26.72
2022-08-20T23:03:40.118Z,26.56
2022-08-20T23:06:10.085Z,26.63
2022-08-20T23:08:40.167Z,26.78
2022-08-20T23:11:08.386Z,26.46
2022-08-20T23:13:36.735Z,26.02
2022-08-20T23:16:05.894Z,25.79
2022-08-20T23:18:34.276Z,25.64
2022-08-20T23:21:02.435Z,25.80
2022-08-20T23:23:31.078Z,26.01
2022-08-20T23:26:00.229Z,26.13
2022-08-20T23:28:28.425Z,25.91
2022-08-20T23:30:56.825Z,25.77
2022-08-20T23:33:25.436Z,25.62
2022-08-20T23:35:53.745Z,25.89
2022-08-20T23:38:22.176Z,25.62
2022-08-20T23:40:50.266Z,25.59
2022-08-20T23:43:19.127Z,25.71
2022-08-20T23:45:47.889Z,25.71
2022-08-20T23:48:16.401Z,25.75
2022-08-20T23:50:44.798Z,25.56
2022-08-20T23:53:13.278Z,25.75
2022-08-20T23:55:41.599Z,25.96
2022-08-20T23:58:09.918Z,25.99
